Burlington (BTV/KBTV)

Map

Destinations

Information

Location
Burlington, VT
Local Time
00:30 / 12:30 am
GMT Time
05:30 / 5:30 am
Gates
Unassigned
No FAA reported delays
METAR KBTV 260454Z 22004KT 10SM SCT038 BKN048 OVC070 02/01 A2957 RMK AO2 SLP014 LAST T00170011 402220006
TAF KBTV 260240Z 2603/2624 VRB05KT 6SM -RA SCT020 OVC035 TEMPO 2603/2606 OVC020 FM260600 32009KT P6SM OVC035 FM261200 30014G22KT P6SM BKN045 FM262300 30008G15KT P6SM SCT150
  • No charts available